sensor_id;sensor_type;location;lat;lon;timestamp;pressure;altitude;pressure_sealevel;temperature;humidity
81354;BME280;70810;52.038;8.524;2023-12-04T00:01:50;100368.69;;;-1.49;86.85
81354;BME280;70810;52.038;8.524;2023-12-04T00:04:19;100359.03;;;-1.50;87.62
81354;BME280;70810;52.038;8.524;2023-12-04T00:06:46;100352.94;;;-1.46;87.97
81354;BME280;70810;52.038;8.524;2023-12-04T00:09:14;100347.63;;;-1.61;87.89
81354;BME280;70810;52.038;8.524;2023-12-04T00:11:42;100353.81;;;-1.44;88.30
81354;BME280;70810;52.038;8.524;2023-12-04T00:14:10;100350.28;;;-1.52;88.49
81354;BME280;70810;52.038;8.524;2023-12-04T00:16:38;100345.03;;;-1.47;88.47
81354;BME280;70810;52.038;8.524;2023-12-04T00:19:05;100338.88;;;-1.56;88.36
81354;BME280;70810;52.038;8.524;2023-12-04T00:21:32;100335.38;;;-1.36;88.82
81354;BME280;70810;52.038;8.524;2023-12-04T00:24:00;100328.34;;;-1.34;88.03
81354;BME280;70810;52.038;8.524;2023-12-04T00:26:27;100324.88;;;-1.24;88.17
81354;BME280;70810;52.038;8.524;2023-12-04T00:28:53;100327.50;;;-1.32;87.84
81354;BME280;70810;52.038;8.524;2023-12-04T00:31:22;100320.50;;;-1.36;87.45
81354;BME280;70810;52.038;8.524;2023-12-04T00:33:49;100318.72;;;-1.43;88.21
81354;BME280;70810;52.038;8.524;2023-12-04T00:36:17;100316.09;;;-1.26;88.45
81354;BME280;70810;52.038;8.524;2023-12-04T00:38:45;100318.72;;;-1.34;88.21
81354;BME280;70810;52.038;8.524;2023-12-04T00:41:12;100309.97;;;-1.40;88.71
81354;BME280;70810;52.038;8.524;2023-12-04T00:43:40;100317.84;;;-1.28;88.87
81354;BME280;70810;52.038;8.524;2023-12-04T00:46:07;100316.97;;;-1.25;88.47
81354;BME280;70810;52.038;8.524;2023-12-04T00:48:36;100314.34;;;-1.27;88.48
81354;BME280;70810;52.038;8.524;2023-12-04T00:51:05;100308.19;;;-1.18;88.54
81354;BME280;70810;52.038;8.524;2023-12-04T00:53:32;100296.81;;;-1.19;88.64
81354;BME280;70810;52.038;8.524;2023-12-04T00:56:00;100298.56;;;-1.27;88.42
81354;BME280;70810;52.038;8.524;2023-12-04T00:58:27;100290.66;;;-1.32;88.89
81354;BME280;70810;52.038;8.524;2023-12-04T01:00:54;100299.44;;;-1.40;88.86
81354;BME280;70810;52.038;8.524;2023-12-04T01:03:23;100303.81;;;-1.27;89.74
81354;BME280;70810;52.038;8.524;2023-12-04T01:05:53;100269.63;;;-1.45;89.87
81354;BME280;70810;52.038;8.524;2023-12-04T01:08:21;100287.16;;;-1.46;90.12
81354;BME280;70810;52.038;8.524;2023-12-04T01:10:48;100276.63;;;-1.52;90.84
81354;BME280;70810;52.038;8.524;2023-12-04T01:13:15;100277.50;;;-1.45;91.33
81354;BME280;70810;52.038;8.524;2023-12-04T01:15:42;100281.88;;;-1.40;91.21
81354;BME280;70810;52.038;8.524;2023-12-04T01:18:10;100272.22;;;-1.33;90.85
81354;BME280;70810;52.038;8.524;2023-12-04T01:20:37;100259.97;;;-1.39;90.83
81354;BME280;70810;52.038;8.524;2023-12-04T01:23:08;100266.09;;;-1.15;90.27
81354;BME280;70810;52.038;8.524;2023-12-04T01:25:38;100259.94;;;-1.28;89.31
81354;BME280;70810;52.038;8.524;2023-12-04T01:28:05;100257.31;;;-1.31;88.99
81354;BME280;70810;52.038;8.524;2023-12-04T01:30:32;100259.09;;;-1.28;89.81
81354;BME280;70810;52.038;8.524;2023-12-04T01:32:59;100256.44;;;-1.19;89.71
81354;BME280;70810;52.038;8.524;2023-12-04T01:35:29;100261.69;;;-1.21;89.30
81354;BME280;70810;52.038;8.524;2023-12-04T01:37:56;100248.56;;;-1.25;89.39
81354;BME280;70810;52.038;8.524;2023-12-04T01:40:24;100250.28;;;-1.18;89.14
81354;BME280;70810;52.038;8.524;2023-12-04T01:42:50;100248.53;;;-1.22;89.25
81354;BME280;70810;52.038;8.524;2023-12-04T01:45:16;100231.03;;;-1.43;90.11
81354;BME280;70810;52.038;8.524;2023-12-04T01:47:47;100253.81;;;-1.47;89.68
81354;BME280;70810;52.038;8.524;2023-12-04T01:50:15;100231.88;;;-1.44;90.65
81354;BME280;70810;52.038;8.524;2023-12-04T01:52:44;100231.91;;;-1.40;89.72
81354;BME280;70810;52.038;8.524;2023-12-04T01:55:14;100233.63;;;-1.31;89.73
81354;BME280;70810;52.038;8.524;2023-12-04T01:57:44;100234.53;;;-1.32;89.94
81354;BME280;70810;52.038;8.524;2023-12-04T02:00:12;100220.47;;;-1.34;89.32
81354;BME280;70810;52.038;8.524;2023-12-04T02:02:40;100231.00;;;-1.33;89.57
81354;BME280;70810;52.038;8.524;2023-12-04T02:05:08;100188.06;;;-1.53;89.44
81354;BME280;70810;52.038;8.524;2023-12-04T02:07:35;100215.25;;;-1.37;89.37
81354;BME280;70810;52.038;8.524;2023-12-04T02:10:02;100212.59;;;-1.31;89.47
81354;BME280;70810;52.038;8.524;2023-12-04T02:12:30;100213.47;;;-1.37;89.25
81354;BME280;70810;52.038;8.524;2023-12-04T02:14:59;100223.13;;;-1.22;89.47
81354;BME280;70810;52.038;8.524;2023-12-04T02:17:26;100224.88;;;-1.27;89.97
81354;BME280;70810;52.038;8.524;2023-12-04T02:19:54;100213.44;;;-1.27;89.57
81354;BME280;70810;52.038;8.524;2023-12-04T02:22:23;100205.56;;;-1.20;89.52
81354;BME280;70810;52.038;8.524;2023-12-04T02:24:52;100202.06;;;-1.34;89.26
81354;BME280;70810;52.038;8.524;2023-12-04T02:27:28;100206.47;;;-1.24;89.22
81354;BME280;70810;52.038;8.524;2023-12-04T02:29:59;100205.56;;;-1.23;88.97
81354;BME280;70810;52.038;8.524;2023-12-04T02:32:29;100195.03;;;-1.20;88.88
81354;BME280;70810;52.038;8.524;2023-12-04T02:34:59;100195.03;;;-1.14;88.49
81354;BME280;70810;52.038;8.524;2023-12-04T02:37:30;100191.50;;;-1.08;87.99
81354;BME280;70810;52.038;8.524;2023-12-04T02:40:01;100183.59;;;-1.09;87.26
81354;BME280;70810;52.038;8.524;2023-12-04T02:42:28;100185.38;;;-1.15;86.26
81354;BME280;70810;52.038;8.524;2023-12-04T02:44:57;100187.94;;;-0.99;86.62
81354;BME280;70810;52.038;8.524;2023-12-04T02:47:27;100187.09;;;-1.04;85.96
81354;BME280;70810;52.038;8.524;2023-12-04T02:49:55;100167.81;;;-1.11;85.41
81354;BME280;70810;52.038;8.524;2023-12-04T02:52:23;100166.03;;;-1.09;85.36
81354;BME280;70810;52.038;8.524;2023-12-04T02:54:50;100162.50;;;-0.99;85.23
81354;BME280;70810;52.038;8.524;2023-12-04T02:57:21;100158.13;;;-1.01;84.46
81354;BME280;70810;52.038;8.524;2023-12-04T02:59:48;100152.81;;;-0.92;83.92
81354;BME280;70810;52.038;8.524;2023-12-04T03:02:15;100142.31;;;-0.97;83.37
81354;BME280;70810;52.038;8.524;2023-12-04T03:04:41;100145.84;;;-1.04;83.65
81354;BME280;70810;52.038;8.524;2023-12-04T03:07:11;100133.53;;;-0.96;82.18
81354;BME280;70810;52.038;8.524;2023-12-04T03:09:38;100124.75;;;-0.91;82.95
81354;BME280;70810;52.038;8.524;2023-12-04T03:12:05;100132.59;;;-0.88;81.27
81354;BME280;70810;52.038;8.524;2023-12-04T03:14:34;100131.72;;;-0.86;81.19
81354;BME280;70810;52.038;8.524;2023-12-04T03:17:01;100130.81;;;-0.79;81.43
81354;BME280;70810;52.038;8.524;2023-12-04T03:19:31;100123.75;;;-0.69;80.64
81354;BME280;70810;52.038;8.524;2023-12-04T03:22:02;100113.22;;;-0.72;79.12
81354;BME280;70810;52.038;8.524;2023-12-04T03:24:29;100121.97;;;-0.65;79.23
81354;BME280;70810;52.038;8.524;2023-12-04T03:26:58;100124.59;;;-0.61;78.94
81354;BME280;70810;52.038;8.524;2023-12-04T03:29:27;100107.94;;;-0.64;79.53
81354;BME280;70810;52.038;8.524;2023-12-04T03:31:55;100111.31;;;-0.47;79.22
81354;BME280;70810;52.038;8.524;2023-12-04T03:34:23;100114.88;;;-0.51;77.50
81354;BME280;70810;52.038;8.524;2023-12-04T03:36:50;100109.63;;;-0.54;76.95
81354;BME280;70810;52.038;8.524;2023-12-04T03:39:20;100098.19;;;-0.53;76.84
81354;BME280;70810;52.038;8.524;2023-12-04T03:41:48;100110.47;;;-0.50;77.51
81354;BME280;70810;52.038;8.524;2023-12-04T03:44:15;100102.66;;;-0.63;77.01
81354;BME280;70810;52.038;8.524;2023-12-04T03:46:42;100086.75;;;-0.46;76.18
81354;BME280;70810;52.038;8.524;2023-12-04T03:49:11;100077.09;;;-0.48;75.47
81354;BME280;70810;52.038;8.524;2023-12-04T03:51:39;100079.69;;;-0.45;75.94
81354;BME280;70810;52.038;8.524;2023-12-04T03:54:08;100076.22;;;-0.52;76.21
81354;BME280;70810;52.038;8.524;2023-12-04T03:56:36;100081.38;;;-0.33;76.28
81354;BME280;70810;52.038;8.524;2023-12-04T03:59:02;100072.66;;;-0.43;74.57
81354;BME280;70810;52.038;8.524;2023-12-04T04:01:30;100058.63;;;-0.47;75.33
81354;BME280;70810;52.038;8.524;2023-12-04T04:03:57;100062.97;;;-0.41;74.82
81354;BME280;70810;52.038;8.524;2023-12-04T04:06:25;100065.56;;;-0.36;74.91
81354;BME280;70810;52.038;8.524;2023-12-04T04:08:52;100065.53;;;-0.30;75.76
81354;BME280;70810;52.038;8.524;2023-12-04T04:11:18;100056.72;;;-0.29;75.38
81354;BME280;70810;52.038;8.524;2023-12-04T04:13:45;100050.56;;;-0.27;74.86
81354;BME280;70810;52.038;8.524;2023-12-04T04:16:16;100051.38;;;-0.18;74.20
81354;BME280;70810;52.038;8.524;2023-12-04T04:18:43;100052.13;;;-0.06;74.43
81354;BME280;70810;52.038;8.524;2023-12-04T04:21:11;100035.44;;;-0.06;74.06
81354;BME280;70810;52.038;8.524;2023-12-04T04:23:39;100048.53;;;0.05;73.83
81354;BME280;70810;52.038;8.524;2023-12-04T04:26:07;100032.81;;;-0.08;74.36
81354;BME280;70810;52.038;8.524;2023-12-04T04:28:34;100038.06;;;-0.05;73.35
81354;BME280;70810;52.038;8.524;2023-12-04T04:31:03;100038.09;;;-0.06;74.88
81354;BME280;70810;52.038;8.524;2023-12-04T04:33:30;100037.19;;;-0.05;73.51
81354;BME280;70810;52.038;8.524;2023-12-04T04:35:59;100030.00;;;0.11;73.16
81354;BME280;70810;52.038;8.524;2023-12-04T04:38:26;100033.63;;;0.02;72.91
81354;BME280;70810;52.038;8.524;2023-12-04T04:40:54;100026.59;;;0.01;72.85
81354;BME280;70810;52.038;8.524;2023-12-04T04:43:25;100035.22;;;0.17;72.28
81354;BME280;70810;52.038;8.524;2023-12-04T04:45:52;100038.75;;;0.14;71.50
81354;BME280;70810;52.038;8.524;2023-12-04T04:48:20;100036.06;;;0.22;71.54
81354;BME280;70810;52.038;8.524;2023-12-04T04:50:47;100017.69;;;0.13;72.06
81354;BME280;70810;52.038;8.524;2023-12-04T04:53:14;100026.41;;;0.18;71.10
81354;BME280;70810;52.038;8.524;2023-12-04T04:55:43;100030.91;;;0.10;71.96
81354;BME280;70810;52.038;8.524;2023-12-04T04:58:28;100022.88;;;0.22;71.72
81354;BME280;70810;52.038;8.524;2023-12-04T05:00:54;100029.88;;;0.23;70.80
81354;BME280;70810;52.038;8.524;2023-12-04T05:03:21;100026.41;;;0.18;71.05
81354;BME280;70810;52.038;8.524;2023-12-04T05:05:48;100028.94;;;0.29;69.91
81354;BME280;70810;52.038;8.524;2023-12-04T05:08:15;100020.16;;;0.28;71.33
81354;BME280;70810;52.038;8.524;2023-12-04T05:10:42;100019.38;;;0.17;71.08
81354;BME280;70810;52.038;8.524;2023-12-04T05:13:09;100024.47;;;0.34;70.49
81354;BME280;70810;52.038;8.524;2023-12-04T05:15:40;100023.72;;;0.24;69.02
81354;BME280;70810;52.038;8.524;2023-12-04T05:18:07;100022.88;;;0.21;70.04
81354;BME280;70810;52.038;8.524;2023-12-04T05:20:33;100014.09;;;0.17;70.15
81354;BME280;70810;52.038;8.524;2023-12-04T05:23:00;100006.94;;;0.30;69.01
81354;BME280;70810;52.038;8.524;2023-12-04T05:25:27;100001.69;;;0.27;69.66
81354;BME280;70810;52.038;8.524;2023-12-04T05:27:54;100009.63;;;0.25;69.48
81354;BME280;70810;52.038;8.524;2023-12-04T05:30:20;99998.09;;;0.34;69.69
81354;BME280;70810;52.038;8.524;2023-12-04T05:32:52;99999.00;;;0.34;69.79
81354;BME280;70810;52.038;8.524;2023-12-04T05:35:22;99992.00;;;0.29;68.80
81354;BME280;70810;52.038;8.524;2023-12-04T05:37:51;99997.06;;;0.46;69.22
81354;BME280;70810;52.038;8.524;2023-12-04T05:40:18;99994.63;;;0.30;68.53
81354;BME280;70810;52.038;8.524;2023-12-04T05:42:44;99993.81;;;0.25;68.35
81354;BME280;70810;52.038;8.524;2023-12-04T05:45:11;99983.22;;;0.27;68.58
81354;BME280;70810;52.038;8.524;2023-12-04T05:47:39;99988.44;;;0.34;68.38
81354;BME280;70810;52.038;8.524;2023-12-04T05:50:10;99976.22;;;0.27;68.36
81354;BME280;70810;52.038;8.524;2023-12-04T05:52:37;99989.34;;;0.29;68.43
81354;BME280;70810;52.038;8.524;2023-12-04T05:55:04;99984.94;;;0.32;67.89
81354;BME280;70810;52.038;8.524;2023-12-04T05:57:31;99984.06;;;0.32;68.41
81354;BME280;70810;52.038;8.524;2023-12-04T05:59:58;99989.06;;;0.57;72.33
81354;BME280;70810;52.038;8.524;2023-12-04T06:02:25;99993.59;;;0.44;70.37
81354;BME280;70810;52.038;8.524;2023-12-04T06:04:53;99983.81;;;0.52;70.86
81354;BME280;70810;52.038;8.524;2023-12-04T06:07:22;99986.44;;;0.55;68.20
81354;BME280;70810;52.038;8.524;2023-12-04T06:09:49;99986.69;;;0.33;68.78
81354;BME280;70810;52.038;8.524;2023-12-04T06:12:15;99992.94;;;0.23;69.02
81354;BME280;70810;52.038;8.524;2023-12-04T06:14:43;99991.25;;;0.19;69.85
81354;BME280;70810;52.038;8.524;2023-12-04T06:17:12;99983.31;;;0.22;67.95
81354;BME280;70810;52.038;8.524;2023-12-04T06:19:40;99980.66;;;0.22;67.62
81354;BME280;70810;52.038;8.524;2023-12-04T06:22:10;99979.94;;;0.08;69.95
81354;BME280;70810;52.038;8.524;2023-12-04T06:24:39;99978.03;;;0.22;69.23
81354;BME280;70810;52.038;8.524;2023-12-04T06:27:06;99967.56;;;0.13;68.42
81354;BME280;70810;52.038;8.524;2023-12-04T06:29:40;99969.31;;;0.15;68.29
81354;BME280;70810;52.038;8.524;2023-12-04T06:32:11;99972.84;;;0.13;69.58
81354;BME280;70810;52.038;8.524;2023-12-04T06:34:38;99976.28;;;0.21;69.82
81354;BME280;70810;52.038;8.524;2023-12-04T06:37:09;99974.50;;;0.20;69.54
81354;BME280;70810;52.038;8.524;2023-12-04T06:39:38;99973.63;;;0.21;69.32
81354;BME280;70810;52.038;8.524;2023-12-04T06:42:08;99975.31;;;0.28;69.19
81354;BME280;70810;52.038;8.524;2023-12-04T06:44:38;99986.84;;;0.18;68.07
81354;BME280;70810;52.038;8.524;2023-12-04T06:47:08;99979.78;;;0.20;67.79
81354;BME280;70810;52.038;8.524;2023-12-04T06:49:36;99987.63;;;0.28;67.31
81354;BME280;70810;52.038;8.524;2023-12-04T06:52:07;99986.88;;;0.16;68.43
81354;BME280;70810;52.038;8.524;2023-12-04T06:55:08;99990.38;;;0.17;68.11
81354;BME280;70810;52.038;8.524;2023-12-04T06:57:52;99985.19;;;0.11;68.71
81354;BME280;70810;52.038;8.524;2023-12-04T07:00:25;99976.31;;;0.16;67.55
81354;BME280;70810;52.038;8.524;2023-12-04T07:03:21;99987.81;;;0.12;67.80
81354;BME280;70810;52.038;8.524;2023-12-04T07:06:26;99983.41;;;0.10;67.76
81354;BME280;70810;52.038;8.524;2023-12-04T07:08:59;99981.59;;;0.15;68.22
81354;BME280;70810;52.038;8.524;2023-12-04T07:11:29;99975.50;;;0.10;68.84
81354;BME280;70810;52.038;8.524;2023-12-04T07:14:01;99943.22;;;-0.11;67.97
81354;BME280;70810;52.038;8.524;2023-12-04T07:16:29;99955.41;;;-0.01;68.28
81354;BME280;70810;52.038;8.524;2023-12-04T07:18:56;99964.94;;;0.13;68.47
81354;BME280;70810;52.038;8.524;2023-12-04T07:21:23;99955.25;;;0.12;68.24
81354;BME280;70810;52.038;8.524;2023-12-04T07:23:51;99953.59;;;0.03;67.87
81354;BME280;70810;52.038;8.524;2023-12-04T07:26:23;99959.78;;;0.04;67.55
81354;BME280;70810;52.038;8.524;2023-12-04T07:32:14;99965.75;;;0.18;67.92
81354;BME280;70810;52.038;8.524;2023-12-04T07:34:45;99957.00;;;0.16;67.06
81354;BME280;70810;52.038;8.524;2023-12-04T07:37:14;99947.31;;;0.16;66.21
81354;BME280;70810;52.038;8.524;2023-12-04T07:39:43;99954.38;;;0.14;66.80
81354;BME280;70810;52.038;8.524;2023-12-04T07:42:11;99945.66;;;0.08;67.21
81354;BME280;70810;52.038;8.524;2023-12-04T07:44:38;99950.91;;;0.11;66.58
81354;BME280;70810;52.038;8.524;2023-12-04T07:47:06;99965.84;;;0.10;66.79
81354;BME280;70810;52.038;8.524;2023-12-04T07:49:36;99948.31;;;0.05;65.94
81354;BME280;70810;52.038;8.524;2023-12-04T07:52:03;99945.78;;;-0.02;65.81
81354;BME280;70810;52.038;8.524;2023-12-04T07:54:30;99942.31;;;-0.07;66.24
81354;BME280;70810;52.038;8.524;2023-12-04T07:56:58;99958.94;;;-0.02;66.08
81354;BME280;70810;52.038;8.524;2023-12-04T07:59:26;99933.50;;;-0.06;67.10
81354;BME280;70810;52.038;8.524;2023-12-04T08:01:53;99936.09;;;-0.01;66.72
81354;BME280;70810;52.038;8.524;2023-12-04T08:04:21;99927.34;;;-0.05;67.36
81354;BME280;70810;52.038;8.524;2023-12-04T08:06:49;99932.66;;;-0.11;66.32
81354;BME280;70810;52.038;8.524;2023-12-04T08:09:16;99929.13;;;-0.07;65.94
81354;BME280;70810;52.038;8.524;2023-12-04T08:11:44;99931.56;;;0.10;66.01
81354;BME280;70810;52.038;8.524;2023-12-04T08:14:13;99930.66;;;0.11;65.81
81354;BME280;70810;52.038;8.524;2023-12-04T08:16:48;99932.41;;;0.12;65.49
81354;BME280;70810;52.038;8.524;2023-12-04T08:19:31;99921.03;;;0.10;64.94
81354;BME280;70810;52.038;8.524;2023-12-04T08:21:59;99921.91;;;0.09;65.27
81354;BME280;70810;52.038;8.524;2023-12-04T08:24:25;99917.31;;;0.24;64.93
81354;BME280;70810;52.038;8.524;2023-12-04T08:26:52;99906.81;;;0.22;65.54
81354;BME280;70810;52.038;8.524;2023-12-04T08:29:19;99907.56;;;0.30;64.51
81354;BME280;70810;52.038;8.524;2023-12-04T08:31:46;99909.28;;;0.34;63.25
81354;BME280;70810;52.038;8.524;2023-12-04T08:34:13;99905.75;;;0.35;64.34
81354;BME280;70810;52.038;8.524;2023-12-04T08:36:42;99907.50;;;0.35;63.95
81354;BME280;70810;52.038;8.524;2023-12-04T08:39:12;99906.75;;;0.27;64.54
81354;BME280;70810;52.038;8.524;2023-12-04T08:41:39;99906.78;;;0.24;64.79
81354;BME280;70810;52.038;8.524;2023-12-04T08:44:06;99907.56;;;0.30;65.54
81354;BME280;70810;52.038;8.524;2023-12-04T08:46:34;99906.59;;;0.39;65.84
81354;BME280;70810;52.038;8.524;2023-12-04T08:49:06;99905.53;;;0.51;64.42
81354;BME280;70810;52.038;8.524;2023-12-04T08:51:33;99901.97;;;0.55;64.75
81354;BME280;70810;52.038;8.524;2023-12-04T08:53:59;99889.75;;;0.49;64.17
81354;BME280;70810;52.038;8.524;2023-12-04T08:56:35;99888.78;;;0.53;64.87
81354;BME280;70810;52.038;8.524;2023-12-04T08:59:19;99884.16;;;0.69;64.53
81354;BME280;70810;52.038;8.524;2023-12-04T09:01:46;99883.25;;;0.72;65.79
81354;BME280;70810;52.038;8.524;2023-12-04T09:04:16;99886.66;;;0.80;63.95
81354;BME280;70810;52.038;8.524;2023-12-04T09:06:50;99889.34;;;0.77;63.41
81354;BME280;70810;52.038;8.524;2023-12-04T09:09:47;99883.91;;;0.85;64.28
81354;BME280;70810;52.038;8.524;2023-12-04T09:12:30;99883.06;;;0.84;64.16
81354;BME280;70810;52.038;8.524;2023-12-04T09:14:57;99883.84;;;0.89;64.95
81354;BME280;70810;52.038;8.524;2023-12-04T09:17:26;99881.97;;;0.98;61.89
81354;BME280;70810;52.038;8.524;2023-12-04T09:19:55;99846.97;;;0.85;61.32
81354;BME280;70810;52.038;8.524;2023-12-04T09:22:27;99871.53;;;0.90;61.77
81354;BME280;70810;52.038;8.524;2023-12-04T09:25:09;99871.53;;;0.90;62.09
81354;BME280;70810;52.038;8.524;2023-12-04T09:27:51;99869.66;;;0.97;62.02
81354;BME280;70810;52.038;8.524;2023-12-04T09:30:21;99861.66;;;1.03;61.13
81354;BME280;70810;52.038;8.524;2023-12-04T09:32:53;99862.50;;;1.03;61.45
81354;BME280;70810;52.038;8.524;2023-12-04T09:35:20;99854.44;;;1.13;61.80
81354;BME280;70810;52.038;8.524;2023-12-04T09:37:48;99856.31;;;1.06;60.96
81354;BME280;70810;52.038;8.524;2023-12-04T09:40:16;99859.81;;;1.06;61.21
81354;BME280;70810;52.038;8.524;2023-12-04T09:42:47;99861.56;;;1.09;61.43
81354;BME280;70810;52.038;8.524;2023-12-04T09:45:14;99857.00;;;1.17;61.27
81354;BME280;70810;52.038;8.524;2023-12-04T09:47:48;99850.03;;;1.11;60.78
81354;BME280;70810;52.038;8.524;2023-12-04T09:50:17;99842.78;;;1.26;62.57
81354;BME280;70810;52.038;8.524;2023-12-04T09:56:06;99858.53;;;1.29;60.44
81354;BME280;70810;52.038;8.524;2023-12-04T09:59:09;99852.38;;;1.30;61.43
81354;BME280;70810;52.038;8.524;2023-12-04T10:01:54;99845.53;;;1.18;60.38
81354;BME280;70810;52.038;8.524;2023-12-04T10:04:41;99831.72;;;1.02;59.85
81354;BME280;70810;52.038;8.524;2023-12-04T10:07:17;99835.25;;;1.01;60.73
81354;BME280;70810;52.038;8.524;2023-12-04T10:09:54;99830.47;;;1.23;59.45
81354;BME280;70810;52.038;8.524;2023-12-04T10:12:43;99823.19;;;1.38;58.63
81354;BME280;70810;52.038;8.524;2023-12-04T10:15:15;99813.53;;;1.35;59.15
81354;BME280;70810;52.038;8.524;2023-12-04T10:17:46;99817.78;;;1.42;58.72
81354;BME280;70810;52.038;8.524;2023-12-04T10:20:24;99801.38;;;1.25;59.04
81354;BME280;70810;52.038;8.524;2023-12-04T10:23:35;99797.03;;;1.22;59.95
81354;BME280;70810;52.038;8.524;2023-12-04T10:26:05;99794.25;;;1.30;57.94
81354;BME280;70810;52.038;8.524;2023-12-04T10:28:32;99799.41;;;1.38;59.02
81354;BME280;70810;52.038;8.524;2023-12-04T10:37:38;99775.94;;;1.21;57.72
81354;BME280;70810;52.038;8.524;2023-12-04T10:40:27;99780.47;;;1.13;59.36
81354;BME280;70810;52.038;8.524;2023-12-04T10:43:37;99768.72;;;1.29;59.12
81354;BME280;70810;52.038;8.524;2023-12-04T10:46:33;99772.94;;;1.39;58.03
81354;BME280;70810;52.038;8.524;2023-12-04T10:49:15;99767.25;;;1.59;59.60
81354;BME280;70810;52.038;8.524;2023-12-04T10:51:44;99769.03;;;1.59;59.42
81354;BME280;70810;52.038;8.524;2023-12-04T10:54:14;99755.91;;;1.53;57.42
81354;BME280;70810;52.038;8.524;2023-12-04T10:56:58;99755.81;;;1.59;57.49
81354;BME280;70810;52.038;8.524;2023-12-04T10:59:44;99750.69;;;1.51;57.74
81354;BME280;70810;52.038;8.524;2023-12-04T11:04:50;99741.94;;;1.46;58.22
81354;BME280;70810;52.038;8.524;2023-12-04T11:07:18;99742.03;;;1.43;59.04
81354;BME280;70810;52.038;8.524;2023-12-04T11:09:49;99736.75;;;1.43;57.86
81354;BME280;70810;52.038;8.524;2023-12-04T11:12:27;99720.78;;;1.47;57.09
81354;BME280;70810;52.038;8.524;2023-12-04T11:15:08;99726.53;;;1.24;58.41
81354;BME280;70810;52.038;8.524;2023-12-04T11:17:59;99725.47;;;1.35;57.89
81354;BME280;70810;52.038;8.524;2023-12-04T11:20:39;99722.91;;;1.30;58.10
81354;BME280;70810;52.038;8.524;2023-12-04T11:23:08;99712.38;;;1.28;58.32
81354;BME280;70810;52.038;8.524;2023-12-04T11:25:44;99717.72;;;1.24;57.54
81354;BME280;70810;52.038;8.524;2023-12-04T11:28:16;99713.19;;;1.30;58.27
81354;BME280;70810;52.038;8.524;2023-12-04T11:30:47;99700.69;;;1.40;58.24
81354;BME280;70810;52.038;8.524;2023-12-04T11:33:17;99706.22;;;1.28;58.76
81354;BME280;70810;52.038;8.524;2023-12-04T11:35:46;99704.59;;;1.21;58.25
81354;BME280;70810;52.038;8.524;2023-12-04T11:41:17;99686.94;;;1.23;59.33
81354;BME280;70810;52.038;8.524;2023-12-04T11:43:46;99680.69;;;1.27;58.82
81354;BME280;70810;52.038;8.524;2023-12-04T11:46:16;99690.00;;;1.46;58.14
81354;BME280;70810;52.038;8.524;2023-12-04T11:48:49;99693.53;;;1.45;57.89
81354;BME280;70810;52.038;8.524;2023-12-04T11:51:46;99676.03;;;1.40;59.01
81354;BME280;70810;52.038;8.524;2023-12-04T11:54:17;99689.16;;;1.44;58.73
81354;BME280;70810;52.038;8.524;2023-12-04T11:59:51;99678.66;;;1.41;59.97
81354;BME280;70810;52.038;8.524;2023-12-04T12:02:22;99685.41;;;1.55;60.76
81354;BME280;70810;52.038;8.524;2023-12-04T12:05:00;99697.84;;;1.49;61.59
81354;BME280;70810;52.038;8.524;2023-12-04T12:07:54;99683.66;;;1.54;62.71
81354;BME280;70810;52.038;8.524;2023-12-04T12:10:27;99677.56;;;1.50;62.35
81354;BME280;70810;52.038;8.524;2023-12-04T12:12:58;99668.63;;;1.56;63.10
81354;BME280;70810;52.038;8.524;2023-12-04T12:15:27;99655.22;;;1.65;61.67
81354;BME280;70810;52.038;8.524;2023-12-04T12:17:54;99655.84;;;1.76;61.58
81354;BME280;70810;52.038;8.524;2023-12-04T12:20:23;99656.00;;;1.70;61.19
81354;BME280;70810;52.038;8.524;2023-12-04T12:22:49;99651.66;;;1.66;59.68
81354;BME280;70810;52.038;8.524;2023-12-04T12:25:19;99649.06;;;1.64;60.52
81354;BME280;70810;52.038;8.524;2023-12-04T12:28:05;99642.91;;;1.64;60.47
81354;BME280;70810;52.038;8.524;2023-12-04T12:34:15;99641.06;;;1.67;60.24
81354;BME280;70810;52.038;8.524;2023-12-04T12:36:45;99627.09;;;1.61;59.92
81354;BME280;70810;52.038;8.524;2023-12-04T12:39:13;99619.94;;;1.66;59.63
81354;BME280;70810;52.038;8.524;2023-12-04T12:41:47;99621.44;;;1.78;60.36
81354;BME280;70810;52.038;8.524;2023-12-04T12:44:14;99622.81;;;1.57;58.21
81354;BME280;70810;52.038;8.524;2023-12-04T12:46:47;99616.06;;;1.43;59.03
81354;BME280;70810;52.038;8.524;2023-12-04T12:49:19;99613.28;;;1.49;59.86
81354;BME280;70810;52.038;8.524;2023-12-04T12:51:49;99613.25;;;1.51;59.59
81354;BME280;70810;52.038;8.524;2023-12-04T12:54:16;99610.81;;;1.40;59.33
81354;BME280;70810;52.038;8.524;2023-12-04T12:56:45;99619.47;;;1.48;58.03
81354;BME280;70810;52.038;8.524;2023-12-04T12:59:12;99617.66;;;1.51;57.54
81354;BME280;70810;52.038;8.524;2023-12-04T13:01:43;99618.47;;;1.53;58.46
81354;BME280;70810;52.038;8.524;2023-12-04T13:04:42;99613.06;;;1.59;59.25
81354;BME280;70810;52.038;8.524;2023-12-04T13:07:13;99611.50;;;1.50;58.85
81354;BME280;70810;52.038;8.524;2023-12-04T13:09:40;99606.94;;;1.57;59.50
81354;BME280;70810;52.038;8.524;2023-12-04T13:12:11;99599.91;;;1.56;59.16
81354;BME280;70810;52.038;8.524;2023-12-04T13:14:48;99595.69;;;1.48;59.99
81354;BME280;70810;52.038;8.524;2023-12-04T13:17:37;99584.88;;;1.58;59.29
81354;BME280;70810;52.038;8.524;2023-12-04T13:20:24;99582.53;;;1.45;59.64
81354;BME280;70810;52.038;8.524;2023-12-04T13:22:50;99581.28;;;1.62;60.19
81354;BME280;70810;52.038;8.524;2023-12-04T13:25:17;99582.94;;;1.66;59.89
81354;BME280;70810;52.038;8.524;2023-12-04T13:27:46;99573.41;;;1.59;60.36
81354;BME280;70810;52.038;8.524;2023-12-04T13:30:14;99579.75;;;1.52;60.44
81354;BME280;70810;52.038;8.524;2023-12-04T13:32:57;99574.50;;;1.50;60.68
81354;BME280;70810;52.038;8.524;2023-12-04T13:35:41;99570.03;;;1.52;59.80
81354;BME280;70810;52.038;8.524;2023-12-04T13:38:12;99567.44;;;1.51;60.37
81354;BME280;70810;52.038;8.524;2023-12-04T13:41:13;99558.38;;;1.61;59.81
81354;BME280;70810;52.038;8.524;2023-12-04T13:44:20;99565.41;;;1.62;60.60
81354;BME280;70810;52.038;8.524;2023-12-04T13:46:49;99554.91;;;1.59;60.47
81354;BME280;70810;52.038;8.524;2023-12-04T13:49:18;99559.72;;;1.41;60.53